createdAt,value
2017-05-21T00:00:29.131Z,94.50
2017-05-21T00:02:56.110Z,94.90
2017-05-21T00:05:23.110Z,95.40
2017-05-21T00:07:50.032Z,95.00
2017-05-21T00:10:17.016Z,94.60
2017-05-21T00:12:43.953Z,94.90
2017-05-21T00:15:10.891Z,95.10
2017-05-21T00:17:37.827Z,94.80
2017-05-21T00:20:04.801Z,95.10
2017-05-21T00:22:31.807Z,94.70
2017-05-21T00:24:58.752Z,94.60
2017-05-21T00:27:25.674Z,95.00
2017-05-21T00:29:52.591Z,94.90
2017-05-21T00:32:19.553Z,95.50
2017-05-21T00:34:46.476Z,95.40
2017-05-21T00:37:13.427Z,95.50
2017-05-21T00:39:40.375Z,95.90
2017-05-21T00:42:07.300Z,95.80
2017-05-21T00:44:34.241Z,95.60
2017-05-21T00:47:01.221Z,95.30
2017-05-21T00:49:28.153Z,95.10
2017-05-21T00:51:55.078Z,94.90
2017-05-21T00:54:22.030Z,95.80
2017-05-21T00:56:48.990Z,96.00
2017-05-21T00:59:15.904Z,95.50
2017-05-21T01:01:42.827Z,95.20
2017-05-21T01:04:09.800Z,95.40
2017-05-21T01:06:36.721Z,95.90
2017-05-21T01:09:03.701Z,96.00
2017-05-21T01:11:30.693Z,95.90
2017-05-21T01:13:57.613Z,95.50
2017-05-21T01:16:24.560Z,95.90
2017-05-21T01:18:51.579Z,96.10
2017-05-21T01:21:18.516Z,96.50
2017-05-21T01:23:45.474Z,96.70
2017-05-21T01:26:12.399Z,96.50
2017-05-21T01:28:39.341Z,96.40
2017-05-21T01:31:06.292Z,96.30
2017-05-21T01:33:34.926Z,96.10
2017-05-21T01:36:01.177Z,96.10
2017-05-21T01:38:28.162Z,96.50
2017-05-21T01:40:55.125Z,96.20
2017-05-21T01:43:22.093Z,96.20
2017-05-21T01:45:49.093Z,96.20
2017-05-21T01:48:16.073Z,95.50
2017-05-21T01:50:43.017Z,95.00
2017-05-21T01:53:09.973Z,94.30
2017-05-21T01:55:36.907Z,94.10
2017-05-21T01:58:03.864Z,94.30
2017-05-21T02:00:30.837Z,94.20
2017-05-21T02:02:57.765Z,93.80
2017-05-21T02:05:24.702Z,93.60
2017-05-21T02:07:51.642Z,93.80
2017-05-21T02:10:18.610Z,93.40
2017-05-21T02:12:45.579Z,93.30
2017-05-21T02:15:12.501Z,93.60
2017-05-21T02:17:39.485Z,93.60
2017-05-21T02:20:06.432Z,93.70
2017-05-21T02:22:33.373Z,93.90
2017-05-21T02:25:00.393Z,93.70
2017-05-21T02:27:27.326Z,93.30
2017-05-21T02:29:54.245Z,93.70
2017-05-21T02:32:20.478Z,93.70
2017-05-21T02:34:47.405Z,92.80
2017-05-21T02:37:14.329Z,92.40
2017-05-21T02:39:41.328Z,92.30
2017-05-21T02:42:08.333Z,92.70
2017-05-21T02:44:35.251Z,93.00
2017-05-21T02:47:02.250Z,93.40
2017-05-21T02:49:29.144Z,93.30
2017-05-21T02:51:56.097Z,93.10
2017-05-21T02:54:23.077Z,93.30
2017-05-21T02:56:50.005Z,93.40
2017-05-21T02:59:16.936Z,93.10
2017-05-21T03:01:43.996Z,93.20
2017-05-21T03:04:10.932Z,92.90
2017-05-21T03:06:37.898Z,93.50
2017-05-21T03:09:04.860Z,93.10
2017-05-21T03:11:31.791Z,92.90
2017-05-21T03:13:58.020Z,92.90
2017-05-21T03:16:24.945Z,93.00
2017-05-21T03:18:51.861Z,93.10
2017-05-21T03:21:18.816Z,93.30
2017-05-21T03:23:45.808Z,93.50
2017-05-21T03:26:12.727Z,93.50
2017-05-21T03:28:39.668Z,92.70
2017-05-21T03:31:06.649Z,92.90
2017-05-21T03:33:33.585Z,93.20
2017-05-21T03:36:00.534Z,95.70
2017-05-21T03:38:27.524Z,96.00
2017-05-21T03:40:54.477Z,96.80
2017-05-21T03:43:21.429Z,97.20
2017-05-21T03:45:48.399Z,97.60
2017-05-21T03:48:15.326Z,98.00
2017-05-21T03:50:42.287Z,97.50
2017-05-21T03:53:09.255Z,97.10
2017-05-21T03:55:36.200Z,97.10
2017-05-21T03:58:03.145Z,97.60
2017-05-21T04:00:30.176Z,97.70
2017-05-21T04:02:57.186Z,97.50
2017-05-21T04:05:24.117Z,97.90
2017-05-21T04:07:51.096Z,98.00
2017-05-21T04:10:18.020Z,98.00
2017-05-21T04:12:44.950Z,97.80
2017-05-21T04:15:11.925Z,97.70
2017-05-21T04:17:38.888Z,97.60
2017-05-21T04:20:05.833Z,97.30
2017-05-21T04:22:32.131Z,97.30
2017-05-21T04:24:59.125Z,97.00
2017-05-21T04:27:26.057Z,96.40
2017-05-21T04:29:52.977Z,95.10
2017-05-21T04:32:19.944Z,94.50
2017-05-21T04:34:46.883Z,93.50
2017-05-21T04:37:13.090Z,93.50
2017-05-21T04:39:40.095Z,93.80
2017-05-21T04:42:07.051Z,93.50
2017-05-21T04:44:34.002Z,92.80
2017-05-21T04:47:00.967Z,92.60
2017-05-21T04:49:27.897Z,92.70
2017-05-21T04:51:54.876Z,91.80
2017-05-21T04:54:21.797Z,92.20
2017-05-21T04:56:48.734Z,91.30
2017-05-21T04:59:15.723Z,91.60
2017-05-21T05:01:42.810Z,90.50
2017-05-21T05:04:09.804Z,90.70
2017-05-21T05:06:36.768Z,91.30
2017-05-21T05:09:03.752Z,90.70
2017-05-21T05:11:30.688Z,90.00
2017-05-21T05:13:57.632Z,88.90
2017-05-21T05:16:24.561Z,87.10
2017-05-21T05:18:51.524Z,86.90
2017-05-21T05:21:18.535Z,84.90
2017-05-21T05:23:45.536Z,84.80
2017-05-21T05:26:12.460Z,84.20
2017-05-21T05:28:39.421Z,83.00
2017-05-21T05:31:06.388Z,81.10
2017-05-21T05:33:33.324Z,81.20
2017-05-21T05:36:00.284Z,79.50
2017-05-21T05:38:27.241Z,78.50
2017-05-21T05:40:54.180Z,77.50
2017-05-21T05:43:21.148Z,77.10
2017-05-21T05:45:48.063Z,76.40
2017-05-21T05:48:15.021Z,75.00
2017-05-21T05:50:41.972Z,76.20
2017-05-21T05:53:08.904Z,74.30
2017-05-21T05:55:35.879Z,75.30
2017-05-21T05:58:02.817Z,74.50
2017-05-21T06:00:29.756Z,72.90
2017-05-21T06:02:56.721Z,72.40
2017-05-21T06:05:23.664Z,72.40
2017-05-21T06:07:50.601Z,69.90
2017-05-21T06:10:17.561Z,71.30
2017-05-21T06:12:44.488Z,73.00
2017-05-21T06:15:11.421Z,70.70
2017-05-21T06:17:38.388Z,72.20
2017-05-21T06:20:05.331Z,71.40
2017-05-21T06:22:32.276Z,71.10
2017-05-21T06:25:00.176Z,69.10
2017-05-21T06:27:27.160Z,67.00
2017-05-21T06:29:54.093Z,68.80
2017-05-21T06:32:21.081Z,68.60
2017-05-21T06:34:48.096Z,67.50
2017-05-21T06:37:15.067Z,68.20
2017-05-21T06:39:42.114Z,67.00
2017-05-21T06:42:09.146Z,65.00
2017-05-21T06:44:36.117Z,63.40
2017-05-21T06:47:03.089Z,64.10
2017-05-21T06:49:30.121Z,61.40
2017-05-21T06:51:57.079Z,61.50
2017-05-21T06:54:24.059Z,60.70
2017-05-21T06:56:51.027Z,60.30
2017-05-21T06:59:17.975Z,60.20
2017-05-21T07:01:44.915Z,60.50
2017-05-21T07:04:11.904Z,60.00
2017-05-21T07:06:38.854Z,57.30
2017-05-21T07:09:05.801Z,59.40
2017-05-21T07:11:32.795Z,56.70
2017-05-21T07:13:59.754Z,57.40
2017-05-21T07:16:26.713Z,55.60
2017-05-21T07:18:53.736Z,56.10
2017-05-21T07:21:20.653Z,56.30
2017-05-21T07:23:47.589Z,56.20
2017-05-21T07:26:14.551Z,55.60
2017-05-21T07:28:41.494Z,55.00
2017-05-21T07:31:08.456Z,54.70
2017-05-21T07:33:35.425Z,55.00
2017-05-21T07:36:02.394Z,53.10
2017-05-21T07:38:29.371Z,51.20
2017-05-21T07:40:56.324Z,51.90
2017-05-21T07:43:23.256Z,52.20
2017-05-21T07:45:50.220Z,51.10
2017-05-21T07:48:17.175Z,51.80
2017-05-21T07:50:44.130Z,49.40
2017-05-21T07:53:11.361Z,49.40
2017-05-21T07:55:38.313Z,50.80
2017-05-21T07:58:05.271Z,49.70
2017-05-21T08:00:32.224Z,49.40
2017-05-21T08:02:59.189Z,48.50
2017-05-21T08:05:26.145Z,47.70
2017-05-21T08:07:53.133Z,46.90
2017-05-21T08:10:20.130Z,46.70
2017-05-21T08:12:47.126Z,46.10
2017-05-21T08:15:14.072Z,46.40
2017-05-21T08:17:41.117Z,45.30
2017-05-21T08:20:08.053Z,44.20
2017-05-21T08:22:34.992Z,45.80
2017-05-21T08:25:01.954Z,47.50
2017-05-21T08:27:28.904Z,45.50
2017-05-21T08:29:55.841Z,44.70
2017-05-21T08:32:22.940Z,45.10
2017-05-21T08:34:49.877Z,43.60
2017-05-21T08:37:16.824Z,43.30
2017-05-21T08:39:43.816Z,42.80
2017-05-21T08:42:10.033Z,42.70
2017-05-21T08:44:37.045Z,42.70
2017-05-21T08:47:03.976Z,43.00
2017-05-21T08:49:30.935Z,42.00
2017-05-21T08:51:58.366Z,44.40
2017-05-21T08:54:25.897Z,41.90
2017-05-21T08:56:52.859Z,41.30
2017-05-21T08:59:20.412Z,40.40
2017-05-21T09:01:47.408Z,40.20
2017-05-21T09:04:13.937Z,40.20
2017-05-21T09:06:41.498Z,38.20
2017-05-21T09:09:08.486Z,38.70
2017-05-21T09:11:35.441Z,40.20
2017-05-21T09:14:02.472Z,39.10
2017-05-21T09:16:31.029Z,41.70
2017-05-21T09:18:57.991Z,42.60
2017-05-21T09:21:24.944Z,41.20
2017-05-21T09:23:51.924Z,38.80
2017-05-21T09:26:18.897Z,38.80
2017-05-21T09:28:45.852Z,39.00
2017-05-21T09:31:12.845Z,38.20
2017-05-21T09:33:39.799Z,40.00
2017-05-21T09:36:06.744Z,42.00
2017-05-21T09:38:33.764Z,43.20
2017-05-21T09:41:00.705Z,43.80
2017-05-21T09:43:27.648Z,41.20
2017-05-21T09:45:54.652Z,41.00
2017-05-21T09:48:21.591Z,39.50
2017-05-21T09:50:48.550Z,41.00
2017-05-21T09:53:15.539Z,40.50
2017-05-21T09:55:42.541Z,41.00
2017-05-21T09:58:09.488Z,39.60
2017-05-21T10:00:36.497Z,37.90
2017-05-21T10:03:03.489Z,38.90
2017-05-21T10:05:30.445Z,38.30
2017-05-21T10:07:57.388Z,37.50
2017-05-21T10:10:24.384Z,36.80
2017-05-21T10:12:51.328Z,35.40
2017-05-21T10:15:18.306Z,34.80
2017-05-21T10:17:45.249Z,35.40
2017-05-21T10:20:12.256Z,36.90
2017-05-21T10:22:39.237Z,37.20
2017-05-21T10:25:06.189Z,40.10
2017-05-21T10:27:33.175Z,42.20
2017-05-21T10:30:00.132Z,41.10
2017-05-21T10:32:27.057Z,39.40
2017-05-21T10:34:54.060Z,38.30
2017-05-21T10:37:21.056Z,39.20
2017-05-21T10:39:48.030Z,38.30
2017-05-21T10:42:15.011Z,38.50
2017-05-21T10:44:41.937Z,36.70
2017-05-21T10:47:08.892Z,38.10
2017-05-21T10:49:35.883Z,36.10
2017-05-21T10:52:02.907Z,36.30
2017-05-21T10:54:29.978Z,37.30
2017-05-21T10:56:56.225Z,36.50
2017-05-21T10:59:23.179Z,36.90
2017-05-21T11:01:50.157Z,36.70
2017-05-21T11:04:17.126Z,37.50
2017-05-21T11:06:44.069Z,37.70
2017-05-21T11:09:11.050Z,39.70
2017-05-21T11:11:38.057Z,41.50
2017-05-21T11:14:05.006Z,43.40
2017-05-21T11:16:32.015Z,41.60
2017-05-21T11:18:58.951Z,40.40
2017-05-21T11:21:25.903Z,39.20
2017-05-21T11:23:52.874Z,38.90
2017-05-21T11:26:19.809Z,40.80
2017-05-21T11:28:46.798Z,40.40
2017-05-21T11:31:13.821Z,40.70
2017-05-21T11:33:40.818Z,40.40
2017-05-21T11:36:07.793Z,40.60
2017-05-21T11:38:34.755Z,41.10
2017-05-21T11:41:01.748Z,41.50
2017-05-21T11:43:28.725Z,42.50
2017-05-21T11:45:55.684Z,43.10
2017-05-21T11:48:22.648Z,43.00
2017-05-21T11:50:49.632Z,42.00
2017-05-21T11:53:16.577Z,41.60
2017-05-21T11:55:43.516Z,42.80
2017-05-21T11:58:10.493Z,43.00
2017-05-21T12:00:37.437Z,44.30
2017-05-21T12:03:04.441Z,43.90
2017-05-21T12:05:31.465Z,43.00
2017-05-21T12:07:58.414Z,43.50
2017-05-21T12:10:25.343Z,42.70
2017-05-21T12:12:52.333Z,41.70
2017-05-21T12:15:19.313Z,42.70
2017-05-21T12:17:46.260Z,44.20
2017-05-21T12:20:13.193Z,42.90
2017-05-21T12:22:41.095Z,44.60
2017-05-21T12:25:08.033Z,46.20
2017-05-21T12:27:34.241Z,46.10
2017-05-21T12:30:01.218Z,43.70
2017-05-21T12:32:28.153Z,45.10
2017-05-21T12:34:55.103Z,45.50
2017-05-21T12:37:22.068Z,46.40
2017-05-21T12:39:49.017Z,46.10
2017-05-21T12:42:15.968Z,46.30
2017-05-21T12:44:42.962Z,44.60
2017-05-21T12:47:10.809Z,46.50
2017-05-21T12:49:37.757Z,46.10
2017-05-21T12:52:04.742Z,45.60
2017-05-21T12:54:31.680Z,46.60
2017-05-21T12:56:58.679Z,46.10
2017-05-21T12:59:25.605Z,46.20
2017-05-21T13:01:52.565Z,46.80
2017-05-21T13:04:19.541Z,43.90
2017-05-21T13:06:46.478Z,45.30
2017-05-21T13:09:13.496Z,45.20
2017-05-21T13:11:40.462Z,47.20
2017-05-21T13:14:07.441Z,47.20
2017-05-21T13:16:34.376Z,46.20
2017-05-21T13:19:01.319Z,46.00
2017-05-21T13:21:28.360Z,47.00
2017-05-21T13:23:55.294Z,44.20
2017-05-21T13:26:22.233Z,46.00
2017-05-21T13:28:49.371Z,46.40
2017-05-21T13:31:16.320Z,47.70
2017-05-21T13:33:43.273Z,47.40
2017-05-21T13:36:10.278Z,47.70
2017-05-21T13:38:37.221Z,45.80
2017-05-21T13:41:04.168Z,45.40
2017-05-21T13:43:31.157Z,46.20
2017-05-21T13:45:58.092Z,46.60
2017-05-21T13:48:25.038Z,46.50
2017-05-21T13:50:52.033Z,46.30
2017-05-21T13:53:18.973Z,46.00
2017-05-21T13:55:45.922Z,46.60
2017-05-21T13:58:12.925Z,46.60
2017-05-21T14:00:39.877Z,46.70
2017-05-21T14:03:06.870Z,47.30
2017-05-21T14:05:33.865Z,46.20
2017-05-21T14:08:00.799Z,46.10
2017-05-21T14:10:27.745Z,46.50
2017-05-21T14:12:54.722Z,46.10
2017-05-21T14:15:21.691Z,46.50
2017-05-21T14:17:48.628Z,45.90
2017-05-21T14:20:15.613Z,45.50
2017-05-21T14:22:42.564Z,41.70
2017-05-21T14:25:09.534Z,41.70
2017-05-21T14:27:36.489Z,42.90
2017-05-21T14:30:03.828Z,46.30
2017-05-21T14:32:30.789Z,45.50
2017-05-21T14:34:57.741Z,43.10
2017-05-21T14:37:24.733Z,43.40
2017-05-21T14:39:51.681Z,43.60
2017-05-21T14:42:18.677Z,46.10
2017-05-21T14:44:45.615Z,45.90
2017-05-21T14:47:12.569Z,44.70
2017-05-21T14:49:39.596Z,45.10
2017-05-21T14:52:06.542Z,45.80
2017-05-21T14:54:33.472Z,43.10
2017-05-21T14:57:00.463Z,43.90
2017-05-21T14:59:27.426Z,46.90
2017-05-21T15:01:54.437Z,43.40
2017-05-21T15:04:21.398Z,42.70
2017-05-21T15:06:48.325Z,43.60
2017-05-21T15:09:15.322Z,43.10
2017-05-21T15:11:42.270Z,42.70
2017-05-21T15:14:09.248Z,42.00
2017-05-21T15:16:36.271Z,42.00
2017-05-21T15:19:03.269Z,42.00
2017-05-21T15:21:30.274Z,42.20
2017-05-21T15:23:57.207Z,42.70
2017-05-21T15:26:24.220Z,42.80
2017-05-21T15:28:51.144Z,41.60
2017-05-21T15:31:18.086Z,43.10
2017-05-21T15:33:45.038Z,42.10
2017-05-21T15:36:11.979Z,42.60
2017-05-21T15:38:38.949Z,43.00
2017-05-21T15:41:05.914Z,41.70
2017-05-21T15:43:32.868Z,42.70
2017-05-21T15:45:59.841Z,42.40
2017-05-21T15:48:26.783Z,43.10
2017-05-21T15:50:53.742Z,42.70
2017-05-21T15:53:20.709Z,42.70
2017-05-21T15:55:47.650Z,43.50
2017-05-21T15:58:14.582Z,44.50
2017-05-21T16:00:41.532Z,44.00
2017-05-21T16:03:08.527Z,43.60
2017-05-21T16:05:35.586Z,43.00
2017-05-21T16:08:02.525Z,43.30
2017-05-21T16:10:29.456Z,45.00
2017-05-21T16:12:56.460Z,45.30
2017-05-21T16:15:23.400Z,46.00
2017-05-21T16:17:50.339Z,46.70
2017-05-21T16:20:17.293Z,47.20
2017-05-21T16:22:44.258Z,47.60
2017-05-21T16:25:11.232Z,48.00
2017-05-21T16:27:38.173Z,48.60
2017-05-21T16:30:05.112Z,48.00
2017-05-21T16:32:32.135Z,47.30
2017-05-21T16:34:59.100Z,47.80
2017-05-21T16:37:26.047Z,48.20
2017-05-21T16:39:53.065Z,48.30
2017-05-21T16:42:21.036Z,48.20
2017-05-21T16:44:47.975Z,48.20
2017-05-21T16:47:14.936Z,48.10
2017-05-21T16:49:41.920Z,48.30
2017-05-21T16:52:08.883Z,49.00
2017-05-21T16:54:35.886Z,48.40
2017-05-21T16:57:02.836Z,49.30
2017-05-21T16:59:29.771Z,50.00
2017-05-21T17:01:56.741Z,50.00
2017-05-21T17:04:23.730Z,50.60
2017-05-21T17:06:50.701Z,49.70
2017-05-21T17:09:17.684Z,49.20
2017-05-21T17:11:43.935Z,49.20
2017-05-21T17:14:10.886Z,50.50
2017-05-21T17:16:37.869Z,50.60
2017-05-21T17:19:04.796Z,50.10
2017-05-21T17:21:31.767Z,49.40
2017-05-21T17:23:58.747Z,50.80
2017-05-21T17:26:25.706Z,50.40
2017-05-21T17:28:52.716Z,50.20
2017-05-21T17:31:19.692Z,49.60
2017-05-21T17:33:46.653Z,49.40
2017-05-21T17:36:13.630Z,49.80
2017-05-21T17:38:40.586Z,49.80
2017-05-21T17:41:07.549Z,50.30
2017-05-21T17:43:34.544Z,49.50
2017-05-21T17:46:01.511Z,50.10
2017-05-21T17:48:28.470Z,51.00
2017-05-21T17:50:55.508Z,51.10
2017-05-21T17:53:22.515Z,51.00
2017-05-21T17:55:49.503Z,51.70
2017-05-21T17:58:16.517Z,51.10
2017-05-21T18:00:43.456Z,51.60
2017-05-21T18:03:10.509Z,51.60
2017-05-21T18:05:37.577Z,51.50
2017-05-21T18:08:04.524Z,51.40
2017-05-21T18:10:31.474Z,51.70
2017-05-21T18:12:58.440Z,51.30
2017-05-21T18:15:25.387Z,52.10
2017-05-21T18:17:52.389Z,52.20
2017-05-21T18:20:19.353Z,52.00
2017-05-21T18:22:46.293Z,51.80
2017-05-21T18:25:13.290Z,52.10
2017-05-21T18:27:40.273Z,51.60
2017-05-21T18:30:07.242Z,52.40
2017-05-21T18:32:34.198Z,52.50
2017-05-21T18:35:01.197Z,52.30
2017-05-21T18:37:28.179Z,52.20
2017-05-21T18:39:55.190Z,52.50
2017-05-21T18:42:22.233Z,52.70
2017-05-21T18:44:49.198Z,52.90
2017-05-21T18:47:16.170Z,52.40
2017-05-21T18:49:43.137Z,52.70
2017-05-21T18:52:10.177Z,53.50
2017-05-21T18:54:37.115Z,53.40
2017-05-21T18:57:04.089Z,53.50
2017-05-21T18:59:31.105Z,53.70
2017-05-21T19:01:58.086Z,53.20
2017-05-21T19:04:25.095Z,53.60
2017-05-21T19:06:52.094Z,52.90
2017-05-21T19:09:19.044Z,52.70
2017-05-21T19:11:45.293Z,52.60
2017-05-21T19:14:12.268Z,53.30
2017-05-21T19:16:39.216Z,53.70
2017-05-21T19:19:06.239Z,53.30
2017-05-21T19:21:33.197Z,53.70
2017-05-21T19:24:00.141Z,53.70
2017-05-21T19:26:27.127Z,53.70
2017-05-21T19:28:54.160Z,54.00
2017-05-21T19:31:21.238Z,54.40
2017-05-21T19:33:48.193Z,55.00
2017-05-21T19:36:15.164Z,55.50
2017-05-21T19:38:42.180Z,55.60
2017-05-21T19:41:09.152Z,55.70
2017-05-21T19:43:36.146Z,55.40
2017-05-21T19:46:03.144Z,55.30
2017-05-21T19:48:30.105Z,55.00
2017-05-21T19:50:57.072Z,55.50
2017-05-21T19:53:24.101Z,56.00
2017-05-21T19:55:50.308Z,55.90
2017-05-21T19:58:17.260Z,55.90
2017-05-21T20:00:44.293Z,55.80
2017-05-21T20:03:11.240Z,55.80
2017-05-21T20:05:38.189Z,55.60
2017-05-21T20:08:05.171Z,55.80
2017-05-21T20:10:32.121Z,56.00
2017-05-21T20:12:59.073Z,56.00
2017-05-21T20:15:26.047Z,56.60
2017-05-21T20:17:52.994Z,57.00
2017-05-21T20:20:19.949Z,56.90
2017-05-21T20:22:46.987Z,57.10
2017-05-21T20:25:13.947Z,57.40
2017-05-21T20:27:40.866Z,57.70
2017-05-21T20:30:07.852Z,57.30
2017-05-21T20:32:34.848Z,58.10
2017-05-21T20:35:01.811Z,58.10
2017-05-21T20:37:28.769Z,58.70
2017-05-21T20:39:55.752Z,58.10
2017-05-21T20:42:22.713Z,57.90
2017-05-21T20:44:49.648Z,58.40
2017-05-21T20:47:16.632Z,58.80
2017-05-21T20:49:43.576Z,59.40
2017-05-21T20:52:10.537Z,59.10
2017-05-21T20:54:37.538Z,59.00
2017-05-21T20:57:04.493Z,59.40
2017-05-21T20:59:31.652Z,59.50
2017-05-21T21:01:58.652Z,59.70
2017-05-21T21:04:25.629Z,59.90
2017-05-21T21:06:52.588Z,59.80
2017-05-21T21:09:19.568Z,60.30
2017-05-21T21:11:46.500Z,61.40
2017-05-21T21:14:13.473Z,62.00
2017-05-21T21:16:40.411Z,62.20
2017-05-21T21:19:07.341Z,62.90
2017-05-21T21:21:34.372Z,63.40
2017-05-21T21:24:01.300Z,64.10
2017-05-21T21:26:28.238Z,64.30
2017-05-21T21:28:55.224Z,64.70
2017-05-21T21:31:22.160Z,64.70
2017-05-21T21:33:49.092Z,64.90
2017-05-21T21:36:16.065Z,64.80
2017-05-21T21:38:43.001Z,64.90
2017-05-21T21:41:09.930Z,64.90
2017-05-21T21:43:36.906Z,65.10
2017-05-21T21:46:03.847Z,65.30
2017-05-21T21:48:30.775Z,65.50
2017-05-21T21:50:57.709Z,65.80
2017-05-21T21:53:24.637Z,66.00
2017-05-21T21:55:51.564Z,66.20
2017-05-21T21:58:18.519Z,66.40
2017-05-21T22:00:45.466Z,66.50
2017-05-21T22:03:12.464Z,66.80
2017-05-21T22:05:39.397Z,66.80
2017-05-21T22:08:06.370Z,66.80
2017-05-21T22:10:33.332Z,66.90
2017-05-21T22:13:00.247Z,67.00
2017-05-21T22:15:27.179Z,67.00
2017-05-21T22:17:54.161Z,66.90
2017-05-21T22:20:21.079Z,67.00
2017-05-21T22:22:48.006Z,67.20
2017-05-21T22:25:14.968Z,67.70
2017-05-21T22:27:41.910Z,67.80
2017-05-21T22:30:08.852Z,67.70
2017-05-21T22:32:35.833Z,67.80
2017-05-21T22:35:02.785Z,67.90
2017-05-21T22:37:29.701Z,68.20
2017-05-21T22:39:56.729Z,68.60
2017-05-21T22:42:23.647Z,68.90
2017-05-21T22:44:50.591Z,69.10
2017-05-21T22:47:17.556Z,69.10
2017-05-21T22:49:44.490Z,69.20
2017-05-21T22:52:11.422Z,69.30
2017-05-21T22:54:38.425Z,69.60
2017-05-21T22:57:05.375Z,69.70
2017-05-21T22:59:32.346Z,69.80
2017-05-21T23:01:59.348Z,70.00
2017-05-21T23:04:25.552Z,69.90
2017-05-21T23:06:52.499Z,70.60
2017-05-21T23:09:19.449Z,70.90
2017-05-21T23:11:46.404Z,71.30
2017-05-21T23:14:13.428Z,71.60
2017-05-21T23:16:40.359Z,71.80
2017-05-21T23:19:07.345Z,72.00
2017-05-21T23:21:34.301Z,72.00
2017-05-21T23:24:01.228Z,72.10
2017-05-21T23:26:28.169Z,72.10
2017-05-21T23:28:55.166Z,72.40
2017-05-21T23:31:22.084Z,72.70
2017-05-21T23:33:49.021Z,72.90
2017-05-21T23:36:15.981Z,73.20
2017-05-21T23:38:42.908Z,73.10
2017-05-21T23:41:09.849Z,73.40
2017-05-21T23:43:36.827Z,73.70
2017-05-21T23:46:03.748Z,73.80
2017-05-21T23:48:30.692Z,74.30
2017-05-21T23:50:57.662Z,74.30
2017-05-21T23:53:24.584Z,74.50
2017-05-21T23:55:51.556Z,74.50
2017-05-21T23:58:18.515Z,74.70
